createdAt,value
2018-01-13T00:01:20.310Z,97.6
2018-01-13T00:06:20.260Z,98.2
2018-01-13T00:11:20.272Z,98.1
2018-01-13T00:16:20.308Z,97.9
2018-01-13T00:21:20.343Z,97.6
2018-01-13T00:26:21.584Z,97.7
2018-01-13T00:31:20.223Z,97.8
2018-01-13T00:36:20.342Z,97.7
2018-01-13T00:41:20.231Z,98.1
2018-01-13T00:46:20.388Z,98.3
2018-01-13T00:51:20.441Z,98
2018-01-13T00:56:20.546Z,98.1
2018-01-13T01:01:20.374Z,99
2018-01-13T01:06:20.731Z,99.2
2018-01-13T01:11:30.457Z,99.1
2018-01-13T01:16:20.319Z,99.5
2018-01-13T01:21:20.406Z,100
2018-01-13T01:26:20.432Z,99.8
2018-01-13T01:31:20.339Z,99
2018-01-13T01:36:20.373Z,98.4
2018-01-13T01:41:20.423Z,97.3
2018-01-13T01:46:20.449Z,97.3
2018-01-13T01:51:20.364Z,97.8
2018-01-13T01:56:20.403Z,96.8
2018-01-13T02:01:20.530Z,97
2018-01-13T02:06:20.356Z,96.9
2018-01-13T02:11:20.419Z,96.6
2018-01-13T02:16:20.375Z,96.8
2018-01-13T02:21:20.280Z,96.5
2018-01-13T02:26:20.306Z,96.3
2018-01-13T02:31:20.283Z,96.7
2018-01-13T02:36:20.298Z,96.5
2018-01-13T02:41:20.332Z,96.8
2018-01-13T02:46:20.424Z,96.8
2018-01-13T02:51:20.388Z,96.7
2018-01-13T02:56:20.510Z,96.4
2018-01-13T03:01:20.380Z,95.9
2018-01-13T03:06:20.426Z,96
2018-01-13T03:11:20.464Z,96.2
2018-01-13T03:16:20.520Z,96
2018-01-13T03:21:20.504Z,96.5
2018-01-13T03:26:20.439Z,96.5
2018-01-13T03:31:20.503Z,96.2
2018-01-13T03:36:20.509Z,96.8
2018-01-13T03:41:20.434Z,96.8
2018-01-13T03:46:20.449Z,96.8
2018-01-13T03:51:20.573Z,96.2
2018-01-13T03:56:20.529Z,95.8
2018-01-13T04:01:20.368Z,96
2018-01-13T04:06:20.457Z,95.5
2018-01-13T04:11:20.501Z,94.6
2018-01-13T04:16:20.423Z,94.5
2018-01-13T04:21:20.436Z,94.6
2018-01-13T04:26:20.473Z,93.9
2018-01-13T04:31:20.344Z,93.9
2018-01-13T04:36:30.413Z,94.2
2018-01-13T04:41:20.332Z,93.5
2018-01-13T04:46:20.413Z,93.9
2018-01-13T04:51:20.523Z,94.3
2018-01-13T04:56:20.468Z,94.1
2018-01-13T05:01:20.436Z,93.3
2018-01-13T05:06:20.513Z,92.9
2018-01-13T05:11:20.385Z,93
2018-01-13T05:16:20.584Z,93.3
2018-01-13T05:21:20.495Z,93.6
2018-01-13T05:26:20.537Z,93.9
2018-01-13T05:31:20.564Z,93.4
2018-01-13T05:36:20.371Z,93.6
2018-01-13T05:41:20.548Z,93.8
2018-01-13T05:46:20.587Z,93.2
2018-01-13T05:51:20.475Z,92.8
2018-01-13T05:56:20.533Z,93.1
2018-01-13T06:01:20.519Z,92.9
2018-01-13T06:06:20.702Z,92.6
2018-01-13T06:11:20.524Z,92.8
2018-01-13T06:16:20.519Z,92.6
2018-01-13T06:21:20.457Z,92.8
2018-01-13T06:26:20.472Z,92.5
2018-01-13T06:31:20.507Z,93
2018-01-13T06:36:20.415Z,93.1
2018-01-13T06:41:20.580Z,92.9
2018-01-13T06:46:20.409Z,92.9
2018-01-13T06:51:20.558Z,92.4
2018-01-13T06:56:20.451Z,91.9
2018-01-13T07:01:20.400Z,91.5
2018-01-13T07:06:20.521Z,91.7
2018-01-13T07:11:20.556Z,91.4
2018-01-13T07:16:20.434Z,91.2
2018-01-13T07:21:20.524Z,90.5
2018-01-13T07:26:20.674Z,90.7
2018-01-13T07:31:20.704Z,90.8
2018-01-13T07:36:20.622Z,90.5
2018-01-13T07:41:23.555Z,90.9
2018-01-13T07:46:20.476Z,90.2
2018-01-13T07:51:20.710Z,90
2018-01-13T07:56:20.502Z,89.7
2018-01-13T08:01:20.557Z,91
2018-01-13T08:06:20.537Z,91.1
2018-01-13T08:11:20.458Z,91.1
2018-01-13T08:16:20.469Z,90.8
2018-01-13T08:21:20.596Z,90.5
2018-01-13T08:26:20.728Z,90.5
2018-01-13T08:31:20.469Z,91.1
2018-01-13T08:36:20.558Z,90.3
2018-01-13T08:41:20.599Z,90.7
2018-01-13T08:46:20.628Z,90.1
2018-01-13T08:51:20.496Z,89.9
2018-01-13T08:56:20.589Z,89.9
2018-01-13T09:01:20.534Z,90.1
2018-01-13T09:06:20.658Z,90.1
2018-01-13T09:11:20.590Z,90.4
2018-01-13T09:16:20.561Z,90
2018-01-13T09:21:21.330Z,91.2
2018-01-13T09:26:20.710Z,93.3
2018-01-13T09:31:20.547Z,93.5
2018-01-13T09:36:21.041Z,93
2018-01-13T09:41:20.538Z,92.5
2018-01-13T09:46:20.910Z,95
2018-01-13T09:51:20.573Z,92
2018-01-13T09:56:20.543Z,97.3
2018-01-13T10:01:20.520Z,91.1
2018-01-13T10:06:20.672Z,91
2018-01-13T10:11:20.547Z,89.9
2018-01-13T10:16:21.528Z,89.7
2018-01-13T10:21:20.563Z,90.1
2018-01-13T10:26:20.560Z,89.3
2018-01-13T10:31:20.549Z,89.5
2018-01-13T10:36:20.591Z,88.9
2018-01-13T10:41:20.645Z,88.6
2018-01-13T10:46:20.581Z,88.5
2018-01-13T10:51:20.527Z,88.6
2018-01-13T10:56:20.531Z,88.2
2018-01-13T11:01:20.613Z,89.3
2018-01-13T11:06:20.567Z,88.7
2018-01-13T11:11:20.587Z,88.8
2018-01-13T11:20:49.682Z,89.9
2018-01-13T11:24:15.181Z,89.8
2018-01-13T11:33:59.606Z,90
2018-01-13T11:38:59.538Z,89.9
2018-01-13T11:43:59.546Z,89.9
2018-01-13T11:48:59.620Z,89.6
2018-01-13T11:53:59.590Z,90.7
2018-01-13T11:58:59.528Z,91.4
2018-01-13T12:03:59.540Z,90.7
2018-01-13T12:08:59.596Z,90.6
2018-01-13T12:13:59.568Z,91
2018-01-13T12:18:59.594Z,90.8
2018-01-13T12:23:59.550Z,90.5
2018-01-13T12:28:59.595Z,90.3
2018-01-13T12:33:59.576Z,90.8
2018-01-13T12:38:59.568Z,89.9
2018-01-13T12:43:59.611Z,90.4
2018-01-13T12:48:59.590Z,91
2018-01-13T12:53:59.589Z,91.7
2018-01-13T12:58:59.684Z,91.6
2018-01-13T13:03:59.631Z,92
2018-01-13T13:08:59.639Z,93
2018-01-13T13:13:59.672Z,93.3
2018-01-13T13:18:59.659Z,92.8
2018-01-13T13:24:06.242Z,92.1
2018-01-13T13:28:59.580Z,91.7
2018-01-13T13:33:59.677Z,91.5
2018-01-13T13:38:59.638Z,91.9
2018-01-13T13:43:59.642Z,91.6
2018-01-13T13:48:59.656Z,90.5
2018-01-13T13:53:59.625Z,91.3
2018-01-13T13:58:59.625Z,91
2018-01-13T14:03:59.645Z,91.3
2018-01-13T14:08:59.613Z,91.4
2018-01-13T14:13:59.652Z,91.3
2018-01-13T14:18:59.694Z,91.2
2018-01-13T14:23:59.639Z,91.9
2018-01-13T14:28:59.651Z,92.3
2018-01-13T14:33:59.754Z,91.3
2018-01-13T14:39:03.912Z,91.2
2018-01-13T14:43:59.662Z,91
2018-01-13T14:48:59.713Z,90.9
2018-01-13T14:53:59.759Z,90.8
2018-01-13T14:58:59.792Z,90.8
2018-01-13T15:03:59.688Z,90.3
2018-01-13T15:08:59.707Z,90.6
2018-01-13T15:13:59.730Z,90.7
2018-01-13T15:18:59.753Z,90.6
2018-01-13T15:23:59.726Z,89.9
2018-01-13T15:28:59.742Z,90.3
2018-01-13T15:33:59.813Z,90.5
2018-01-13T15:38:59.794Z,90.7
2018-01-13T15:44:00.411Z,90.9
2018-01-13T15:48:59.782Z,90.8
2018-01-13T15:53:59.703Z,91
2018-01-13T15:58:59.860Z,90.6
2018-01-13T16:03:59.715Z,90.8
2018-01-13T16:08:59.766Z,90.9
2018-01-13T16:14:01.712Z,90.6
2018-01-13T16:19:00.379Z,90.8
2018-01-13T16:23:59.743Z,91.1
2018-01-13T16:28:59.777Z,90.6
2018-01-13T16:34:00.006Z,91
2018-01-13T16:38:59.748Z,90.6
2018-01-13T16:44:00.278Z,91.2
2018-01-13T16:48:59.778Z,90.9
2018-01-13T16:53:59.796Z,91
2018-01-13T16:58:59.785Z,91.4
2018-01-13T17:03:59.897Z,91.4
2018-01-13T17:08:59.778Z,91.4
2018-01-13T17:13:59.762Z,90.9
2018-01-13T17:18:59.967Z,91.2
2018-01-13T17:23:59.756Z,91.5
2018-01-13T17:28:59.754Z,91.5
2018-01-13T17:33:59.758Z,91.2
2018-01-13T17:38:59.866Z,91.4
2018-01-13T17:43:59.935Z,91.6
2018-01-13T17:48:59.828Z,91.6
2018-01-13T17:54:00.192Z,91.8
2018-01-13T17:59:00.328Z,91.5
2018-01-13T18:03:59.797Z,92
2018-01-13T18:08:59.805Z,91.8
2018-01-13T18:13:59.826Z,92
2018-01-13T18:18:59.794Z,92
2018-01-13T18:23:59.892Z,92.3
2018-01-13T18:28:59.954Z,92.3
2018-01-13T18:33:59.834Z,92.7
2018-01-13T18:38:59.816Z,92.5
2018-01-13T18:43:59.866Z,92.6
2018-01-13T18:48:59.881Z,93
2018-01-13T18:53:59.919Z,93.2
2018-01-13T18:58:59.923Z,93.4
2018-01-13T19:03:59.949Z,93.6
2018-01-13T19:09:00.727Z,94
2018-01-13T19:13:59.801Z,93.9
2018-01-13T19:19:00.277Z,94
2018-01-13T19:23:59.811Z,94.1
2018-01-13T19:29:02.627Z,93.9
2018-01-13T19:33:59.842Z,94.3
2018-01-13T19:38:59.842Z,94.1
2018-01-13T19:44:01.754Z,94.6
2018-01-13T19:49:00.231Z,94.8
2018-01-13T19:54:00.740Z,94.8
2018-01-13T19:59:00.451Z,94.3
2018-01-13T20:04:00.029Z,94.6
2018-01-13T20:09:00.073Z,94.6
2018-01-13T20:13:59.994Z,94.6
2018-01-13T20:19:00.036Z,94.8
2018-01-13T20:24:00.345Z,94.9
2018-01-13T20:29:00.590Z,95.1
2018-01-13T20:34:01.009Z,95.3
2018-01-13T20:39:00.319Z,95.4
2018-01-13T20:44:00.169Z,95.5
2018-01-13T20:49:01.476Z,96.1
2018-01-13T20:54:00.891Z,96.2
2018-01-13T20:59:00.606Z,96.4
2018-01-13T21:04:00.076Z,96.6
2018-01-13T21:09:00.046Z,96.8
2018-01-13T21:14:00.025Z,97.1
2018-01-13T21:19:00.159Z,97.4
2018-01-13T21:24:00.021Z,97.4
2018-01-13T21:29:00.301Z,97.6
2018-01-13T21:34:00.146Z,97.6
2018-01-13T21:39:00.016Z,98
2018-01-13T21:43:59.977Z,97.9
2018-01-13T21:49:00.174Z,98
2018-01-13T21:53:59.919Z,98
2018-01-13T21:58:59.967Z,97.9
2018-01-13T22:03:59.965Z,98.1
2018-01-13T22:08:59.960Z,98.2
2018-01-13T22:14:00.032Z,98
2018-01-13T22:19:00.546Z,98
2018-01-13T22:24:00.086Z,97.9
2018-01-13T22:28:59.966Z,97.6
2018-01-13T22:33:59.960Z,97.4
2018-01-13T22:39:00.180Z,97.1
2018-01-13T22:43:59.941Z,96.6
2018-01-13T22:48:59.952Z,96.2
2018-01-13T22:54:00.156Z,96
2018-01-13T22:59:00.010Z,95.8
2018-01-13T23:03:59.980Z,95.7
2018-01-13T23:09:00.011Z,95.2
2018-01-13T23:14:10.009Z,95.3
2018-01-13T23:18:59.993Z,94.9
2018-01-13T23:24:00.048Z,94.5
2018-01-13T23:28:59.944Z,94.5
2018-01-13T23:34:00.047Z,94.3
2018-01-13T23:38:59.944Z,94.4
2018-01-13T23:44:00.103Z,93.8
2018-01-13T23:48:59.967Z,93.5
2018-01-13T23:53:59.953Z,93.6
2018-01-13T23:58:59.960Z,93.4
